sensor_id;sensor_type;location;lat;lon;timestamp;P1;durP1;ratioP1;P2;durP2;ratioP2
19780;SDS011;10050;55.492;13.506;2023-05-10T00:01:22;10.67;;;3.80;;
19780;SDS011;10050;55.492;13.506;2023-05-10T00:03:48;9.60;;;3.80;;
19780;SDS011;10050;55.492;13.506;2023-05-10T00:06:14;8.33;;;3.60;;
19780;SDS011;10050;55.492;13.506;2023-05-10T00:08:40;4.60;;;3.37;;
19780;SDS011;10050;55.492;13.506;2023-05-10T00:11:05;5.33;;;3.87;;
19780;SDS011;10050;55.492;13.506;2023-05-10T00:13:31;3.83;;;3.33;;
19780;SDS011;10050;55.492;13.506;2023-05-10T00:15:57;7.33;;;3.87;;
19780;SDS011;10050;55.492;13.506;2023-05-10T00:18:23;5.10;;;3.37;;
19780;SDS011;10050;55.492;13.506;2023-05-10T00:20:48;5.17;;;3.47;;
19780;SDS011;10050;55.492;13.506;2023-05-10T00:23:14;4.43;;;3.60;;
19780;SDS011;10050;55.492;13.506;2023-05-10T00:25:40;5.07;;;3.30;;
19780;SDS011;10050;55.492;13.506;2023-05-10T00:28:05;3.90;;;3.50;;
19780;SDS011;10050;55.492;13.506;2023-05-10T00:30:31;10.80;;;4.13;;
19780;SDS011;10050;55.492;13.506;2023-05-10T00:32:57;5.83;;;3.57;;
19780;SDS011;10050;55.492;13.506;2023-05-10T00:35:22;7.23;;;3.83;;
19780;SDS011;10050;55.492;13.506;2023-05-10T00:37:48;8.57;;;3.90;;
19780;SDS011;10050;55.492;13.506;2023-05-10T00:40:14;6.23;;;3.90;;
19780;SDS011;10050;55.492;13.506;2023-05-10T00:42:39;5.03;;;3.87;;
19780;SDS011;10050;55.492;13.506;2023-05-10T00:45:05;6.37;;;3.70;;
19780;SDS011;10050;55.492;13.506;2023-05-10T00:47:32;8.10;;;4.10;;
19780;SDS011;10050;55.492;13.506;2023-05-10T00:49:58;8.00;;;4.27;;
19780;SDS011;10050;55.492;13.506;2023-05-10T00:52:25;5.20;;;3.77;;
19780;SDS011;10050;55.492;13.506;2023-05-10T00:54:54;4.43;;;4.00;;
19780;SDS011;10050;55.492;13.506;2023-05-10T00:57:20;9.37;;;4.00;;
19780;SDS011;10050;55.492;13.506;2023-05-10T00:59:46;10.03;;;4.10;;
19780;SDS011;10050;55.492;13.506;2023-05-10T01:02:13;4.47;;;3.50;;
19780;SDS011;10050;55.492;13.506;2023-05-10T01:04:39;6.80;;;3.60;;
19780;SDS011;10050;55.492;13.506;2023-05-10T01:07:05;5.77;;;3.27;;
19780;SDS011;10050;55.492;13.506;2023-05-10T01:09:31;7.87;;;4.20;;
19780;SDS011;10050;55.492;13.506;2023-05-10T01:11:57;7.07;;;3.97;;
19780;SDS011;10050;55.492;13.506;2023-05-10T01:14:24;8.63;;;3.50;;
19780;SDS011;10050;55.492;13.506;2023-05-10T01:16:51;4.80;;;3.97;;
19780;SDS011;10050;55.492;13.506;2023-05-10T01:21:57;8.87;;;3.63;;
19780;SDS011;10050;55.492;13.506;2023-05-10T01:35:42;4.90;;;3.60;;
19780;SDS011;10050;55.492;13.506;2023-05-10T01:38:20;5.87;;;4.13;;
19780;SDS011;10050;55.492;13.506;2023-05-10T01:46:20;8.57;;;4.23;;
19780;SDS011;10050;55.492;13.506;2023-05-10T01:48:53;8.50;;;4.03;;
19780;SDS011;10050;55.492;13.506;2023-05-10T01:51:24;8.13;;;3.73;;
19780;SDS011;10050;55.492;13.506;2023-05-10T01:53:56;5.27;;;3.70;;
19780;SDS011;10050;55.492;13.506;2023-05-10T01:56:25;4.37;;;3.33;;
19780;SDS011;10050;55.492;13.506;2023-05-10T01:58:54;9.57;;;4.27;;
19780;SDS011;10050;55.492;13.506;2023-05-10T02:01:21;6.37;;;4.00;;
19780;SDS011;10050;55.492;13.506;2023-05-10T02:03:49;5.97;;;3.77;;
19780;SDS011;10050;55.492;13.506;2023-05-10T02:06:16;4.30;;;3.73;;
19780;SDS011;10050;55.492;13.506;2023-05-10T02:08:45;5.53;;;3.83;;
19780;SDS011;10050;55.492;13.506;2023-05-10T02:11:12;5.13;;;4.23;;
19780;SDS011;10050;55.492;13.506;2023-05-10T02:13:39;3.37;;;3.07;;
19780;SDS011;10050;55.492;13.506;2023-05-10T02:16:06;7.27;;;3.80;;
19780;SDS011;10050;55.492;13.506;2023-05-10T02:18:33;8.30;;;3.53;;
19780;SDS011;10050;55.492;13.506;2023-05-10T02:21:01;5.57;;;3.60;;
19780;SDS011;10050;55.492;13.506;2023-05-10T02:23:28;10.73;;;3.60;;
19780;SDS011;10050;55.492;13.506;2023-05-10T02:25:54;6.73;;;3.90;;
19780;SDS011;10050;55.492;13.506;2023-05-10T02:28:23;4.73;;;3.87;;
19780;SDS011;10050;55.492;13.506;2023-05-10T02:30:50;6.10;;;3.80;;
19780;SDS011;10050;55.492;13.506;2023-05-10T02:33:17;6.03;;;4.00;;
19780;SDS011;10050;55.492;13.506;2023-05-10T02:35:44;6.30;;;4.17;;
19780;SDS011;10050;55.492;13.506;2023-05-10T02:38:11;6.90;;;3.87;;
19780;SDS011;10050;55.492;13.506;2023-05-10T02:40:39;5.40;;;3.77;;
19780;SDS011;10050;55.492;13.506;2023-05-10T02:43:07;4.43;;;3.67;;
19780;SDS011;10050;55.492;13.506;2023-05-10T02:45:37;8.00;;;3.67;;
19780;SDS011;10050;55.492;13.506;2023-05-10T02:48:04;4.50;;;3.83;;
19780;SDS011;10050;55.492;13.506;2023-05-10T02:50:31;6.80;;;4.43;;
19780;SDS011;10050;55.492;13.506;2023-05-10T02:53:02;6.20;;;4.10;;
19780;SDS011;10050;55.492;13.506;2023-05-10T02:55:38;4.67;;;3.47;;
19780;SDS011;10050;55.492;13.506;2023-05-10T02:58:06;6.17;;;3.67;;
19780;SDS011;10050;55.492;13.506;2023-05-10T03:00:32;9.07;;;4.10;;
19780;SDS011;10050;55.492;13.506;2023-05-10T03:02:58;5.60;;;3.80;;
19780;SDS011;10050;55.492;13.506;2023-05-10T03:05:24;9.37;;;4.30;;
19780;SDS011;10050;55.492;13.506;2023-05-10T03:07:50;8.27;;;3.93;;
19780;SDS011;10050;55.492;13.506;2023-05-10T03:10:17;6.10;;;3.90;;
19780;SDS011;10050;55.492;13.506;2023-05-10T03:15:21;6.17;;;3.80;;
19780;SDS011;10050;55.492;13.506;2023-05-10T03:18:12;4.20;;;3.80;;
19780;SDS011;10050;55.492;13.506;2023-05-10T03:21:02;4.70;;;4.27;;
19780;SDS011;10050;55.492;13.506;2023-05-10T03:23:41;9.57;;;4.23;;
19780;SDS011;10050;55.492;13.506;2023-05-10T03:26:22;8.33;;;4.20;;
19780;SDS011;10050;55.492;13.506;2023-05-10T03:28:51;4.90;;;3.90;;
19780;SDS011;10050;55.492;13.506;2023-05-10T03:31:18;8.93;;;4.33;;
19780;SDS011;10050;55.492;13.506;2023-05-10T03:33:51;7.20;;;4.03;;
19780;SDS011;10050;55.492;13.506;2023-05-10T03:36:18;5.57;;;4.00;;
19780;SDS011;10050;55.492;13.506;2023-05-10T03:38:44;6.73;;;3.60;;
19780;SDS011;10050;55.492;13.506;2023-05-10T03:41:10;5.47;;;4.23;;
19780;SDS011;10050;55.492;13.506;2023-05-10T03:43:36;7.40;;;4.10;;
19780;SDS011;10050;55.492;13.506;2023-05-10T03:46:05;9.53;;;3.77;;
19780;SDS011;10050;55.492;13.506;2023-05-10T03:48:34;7.17;;;4.10;;
19780;SDS011;10050;55.492;13.506;2023-05-10T03:50:59;8.33;;;4.27;;
19780;SDS011;10050;55.492;13.506;2023-05-10T03:53:25;7.23;;;3.80;;
19780;SDS011;10050;55.492;13.506;2023-05-10T03:55:51;12.20;;;4.43;;
19780;SDS011;10050;55.492;13.506;2023-05-10T03:58:17;7.90;;;4.00;;
19780;SDS011;10050;55.492;13.506;2023-05-10T04:00:43;7.13;;;4.40;;
19780;SDS011;10050;55.492;13.506;2023-05-10T04:03:10;6.73;;;3.77;;
19780;SDS011;10050;55.492;13.506;2023-05-10T04:05:36;5.77;;;4.20;;
19780;SDS011;10050;55.492;13.506;2023-05-10T04:08:03;7.23;;;4.13;;
19780;SDS011;10050;55.492;13.506;2023-05-10T04:10:29;9.00;;;4.40;;
19780;SDS011;10050;55.492;13.506;2023-05-10T04:12:54;6.17;;;4.07;;
19780;SDS011;10050;55.492;13.506;2023-05-10T04:15:20;7.47;;;4.10;;
19780;SDS011;10050;55.492;13.506;2023-05-10T04:17:46;12.23;;;4.10;;
19780;SDS011;10050;55.492;13.506;2023-05-10T04:20:12;5.00;;;3.80;;
19780;SDS011;10050;55.492;13.506;2023-05-10T04:22:38;5.97;;;4.30;;
19780;SDS011;10050;55.492;13.506;2023-05-10T04:25:03;6.83;;;3.93;;
19780;SDS011;10050;55.492;13.506;2023-05-10T04:27:30;6.73;;;4.30;;
19780;SDS011;10050;55.492;13.506;2023-05-10T04:29:56;10.50;;;4.07;;
19780;SDS011;10050;55.492;13.506;2023-05-10T04:32:22;8.47;;;4.33;;
19780;SDS011;10050;55.492;13.506;2023-05-10T04:34:47;6.03;;;3.83;;
19780;SDS011;10050;55.492;13.506;2023-05-10T04:37:13;4.93;;;3.57;;
19780;SDS011;10050;55.492;13.506;2023-05-10T04:39:39;8.27;;;4.67;;
19780;SDS011;10050;55.492;13.506;2023-05-10T04:42:04;5.90;;;3.90;;
19780;SDS011;10050;55.492;13.506;2023-05-10T04:44:31;4.37;;;3.97;;
19780;SDS011;10050;55.492;13.506;2023-05-10T04:46:57;4.60;;;3.90;;
19780;SDS011;10050;55.492;13.506;2023-05-10T04:49:22;3.60;;;3.27;;
19780;SDS011;10050;55.492;13.506;2023-05-10T04:51:48;5.07;;;4.30;;
19780;SDS011;10050;55.492;13.506;2023-05-10T04:54:14;6.03;;;4.10;;
19780;SDS011;10050;55.492;13.506;2023-05-10T04:56:40;6.87;;;4.30;;
19780;SDS011;10050;55.492;13.506;2023-05-10T04:59:06;5.57;;;4.17;;
19780;SDS011;10050;55.492;13.506;2023-05-10T05:01:31;4.37;;;3.50;;
19780;SDS011;10050;55.492;13.506;2023-05-10T05:03:57;7.83;;;3.90;;
19780;SDS011;10050;55.492;13.506;2023-05-10T05:06:24;6.63;;;4.30;;
19780;SDS011;10050;55.492;13.506;2023-05-10T05:08:50;5.53;;;3.70;;
19780;SDS011;10050;55.492;13.506;2023-05-10T05:11:16;5.47;;;4.10;;
19780;SDS011;10050;55.492;13.506;2023-05-10T05:13:42;8.97;;;4.60;;
19780;SDS011;10050;55.492;13.506;2023-05-10T05:16:08;8.30;;;4.07;;
19780;SDS011;10050;55.492;13.506;2023-05-10T05:18:35;5.70;;;3.90;;
19780;SDS011;10050;55.492;13.506;2023-05-10T05:21:00;7.30;;;3.90;;
19780;SDS011;10050;55.492;13.506;2023-05-10T05:23:26;8.03;;;4.47;;
19780;SDS011;10050;55.492;13.506;2023-05-10T05:25:52;5.73;;;4.00;;
19780;SDS011;10050;55.492;13.506;2023-05-10T05:28:18;12.97;;;4.30;;
19780;SDS011;10050;55.492;13.506;2023-05-10T05:30:45;8.67;;;4.70;;
19780;SDS011;10050;55.492;13.506;2023-05-10T05:33:11;5.73;;;4.00;;
19780;SDS011;10050;55.492;13.506;2023-05-10T05:35:38;13.77;;;5.20;;
19780;SDS011;10050;55.492;13.506;2023-05-10T05:38:03;8.20;;;3.93;;
19780;SDS011;10050;55.492;13.506;2023-05-10T05:40:29;9.87;;;4.07;;
19780;SDS011;10050;55.492;13.506;2023-05-10T05:42:54;6.50;;;3.57;;
19780;SDS011;10050;55.492;13.506;2023-05-10T05:45:20;13.20;;;4.40;;
19780;SDS011;10050;55.492;13.506;2023-05-10T05:47:46;8.63;;;4.10;;
19780;SDS011;10050;55.492;13.506;2023-05-10T05:50:12;4.80;;;4.30;;
19780;SDS011;10050;55.492;13.506;2023-05-10T05:52:38;7.60;;;4.00;;
19780;SDS011;10050;55.492;13.506;2023-05-10T05:55:03;5.93;;;4.27;;
19780;SDS011;10050;55.492;13.506;2023-05-10T05:57:29;6.17;;;3.77;;
19780;SDS011;10050;55.492;13.506;2023-05-10T05:59:55;5.37;;;3.80;;
19780;SDS011;10050;55.492;13.506;2023-05-10T06:02:21;7.27;;;4.13;;
19780;SDS011;10050;55.492;13.506;2023-05-10T06:04:46;7.57;;;4.07;;
19780;SDS011;10050;55.492;13.506;2023-05-10T06:07:12;7.73;;;4.20;;
19780;SDS011;10050;55.492;13.506;2023-05-10T06:09:38;9.90;;;4.60;;
19780;SDS011;10050;55.492;13.506;2023-05-10T06:12:03;5.90;;;4.20;;
19780;SDS011;10050;55.492;13.506;2023-05-10T06:14:30;6.43;;;4.40;;
19780;SDS011;10050;55.492;13.506;2023-05-10T06:16:55;7.37;;;4.50;;
19780;SDS011;10050;55.492;13.506;2023-05-10T06:19:21;10.80;;;4.20;;
19780;SDS011;10050;55.492;13.506;2023-05-10T06:21:46;7.93;;;5.00;;
19780;SDS011;10050;55.492;13.506;2023-05-10T06:24:12;8.80;;;4.13;;
19780;SDS011;10050;55.492;13.506;2023-05-10T06:26:38;8.07;;;4.33;;
19780;SDS011;10050;55.492;13.506;2023-05-10T06:29:03;7.23;;;4.50;;
19780;SDS011;10050;55.492;13.506;2023-05-10T06:31:29;7.40;;;5.30;;
19780;SDS011;10050;55.492;13.506;2023-05-10T06:33:55;10.03;;;4.47;;
19780;SDS011;10050;55.492;13.506;2023-05-10T06:36:20;5.30;;;4.73;;
19780;SDS011;10050;55.492;13.506;2023-05-10T06:38:46;5.40;;;4.33;;
19780;SDS011;10050;55.492;13.506;2023-05-10T06:41:12;5.63;;;4.13;;
19780;SDS011;10050;55.492;13.506;2023-05-10T06:43:38;9.10;;;4.27;;
19780;SDS011;10050;55.492;13.506;2023-05-10T06:46:06;6.10;;;3.83;;
19780;SDS011;10050;55.492;13.506;2023-05-10T06:48:32;10.43;;;4.50;;
19780;SDS011;10050;55.492;13.506;2023-05-10T06:50:57;7.43;;;4.33;;
19780;SDS011;10050;55.492;13.506;2023-05-10T06:53:23;10.73;;;4.30;;
19780;SDS011;10050;55.492;13.506;2023-05-10T06:55:49;5.43;;;4.27;;
19780;SDS011;10050;55.492;13.506;2023-05-10T06:58:15;9.70;;;4.47;;
19780;SDS011;10050;55.492;13.506;2023-05-10T07:00:40;6.53;;;4.00;;
19780;SDS011;10050;55.492;13.506;2023-05-10T07:03:08;7.50;;;4.43;;
19780;SDS011;10050;55.492;13.506;2023-05-10T07:05:35;5.00;;;4.20;;
19780;SDS011;10050;55.492;13.506;2023-05-10T07:08:00;5.57;;;4.10;;
19780;SDS011;10050;55.492;13.506;2023-05-10T07:10:26;9.83;;;4.83;;
19780;SDS011;10050;55.492;13.506;2023-05-10T07:12:52;8.80;;;4.17;;
19780;SDS011;10050;55.492;13.506;2023-05-10T07:15:17;10.53;;;4.63;;
19780;SDS011;10050;55.492;13.506;2023-05-10T07:17:43;7.40;;;4.27;;
19780;SDS011;10050;55.492;13.506;2023-05-10T07:20:09;7.17;;;3.93;;
19780;SDS011;10050;55.492;13.506;2023-05-10T07:22:35;8.17;;;3.80;;
19780;SDS011;10050;55.492;13.506;2023-05-10T07:25:01;9.90;;;4.10;;
19780;SDS011;10050;55.492;13.506;2023-05-10T07:27:27;5.73;;;4.27;;
19780;SDS011;10050;55.492;13.506;2023-05-10T07:29:53;7.40;;;4.83;;
19780;SDS011;10050;55.492;13.506;2023-05-10T07:32:19;7.17;;;4.47;;
19780;SDS011;10050;55.492;13.506;2023-05-10T07:34:45;4.43;;;4.00;;
19780;SDS011;10050;55.492;13.506;2023-05-10T07:37:11;5.57;;;4.30;;
19780;SDS011;10050;55.492;13.506;2023-05-10T07:39:37;6.77;;;4.40;;
19780;SDS011;10050;55.492;13.506;2023-05-10T07:42:02;7.17;;;3.83;;
19780;SDS011;10050;55.492;13.506;2023-05-10T07:44:28;8.57;;;4.53;;
19780;SDS011;10050;55.492;13.506;2023-05-10T07:46:54;7.53;;;4.23;;
19780;SDS011;10050;55.492;13.506;2023-05-10T07:49:20;6.80;;;4.37;;
19780;SDS011;10050;55.492;13.506;2023-05-10T07:51:46;7.37;;;4.73;;
19780;SDS011;10050;55.492;13.506;2023-05-10T07:54:12;11.40;;;4.90;;
19780;SDS011;10050;55.492;13.506;2023-05-10T07:56:39;9.77;;;5.27;;
19780;SDS011;10050;55.492;13.506;2023-05-10T07:59:09;10.70;;;4.77;;
19780;SDS011;10050;55.492;13.506;2023-05-10T08:01:35;6.93;;;4.27;;
19780;SDS011;10050;55.492;13.506;2023-05-10T08:04:01;6.00;;;4.20;;
19780;SDS011;10050;55.492;13.506;2023-05-10T08:06:27;6.97;;;3.90;;
19780;SDS011;10050;55.492;13.506;2023-05-10T08:08:54;4.77;;;4.27;;
19780;SDS011;10050;55.492;13.506;2023-05-10T08:11:20;9.63;;;4.30;;
19780;SDS011;10050;55.492;13.506;2023-05-10T08:13:47;7.50;;;4.40;;
19780;SDS011;10050;55.492;13.506;2023-05-10T08:16:14;6.80;;;4.33;;
19780;SDS011;10050;55.492;13.506;2023-05-10T08:18:40;11.10;;;4.80;;
19780;SDS011;10050;55.492;13.506;2023-05-10T08:21:06;6.17;;;4.50;;
19780;SDS011;10050;55.492;13.506;2023-05-10T08:23:31;8.10;;;4.10;;
19780;SDS011;10050;55.492;13.506;2023-05-10T08:25:57;8.83;;;4.90;;
19780;SDS011;10050;55.492;13.506;2023-05-10T08:28:24;5.07;;;4.57;;
19780;SDS011;10050;55.492;13.506;2023-05-10T08:30:49;7.47;;;4.20;;
19780;SDS011;10050;55.492;13.506;2023-05-10T08:33:17;11.03;;;5.30;;
19780;SDS011;10050;55.492;13.506;2023-05-10T08:35:43;5.87;;;4.10;;
19780;SDS011;10050;55.492;13.506;2023-05-10T08:38:08;5.53;;;3.93;;
19780;SDS011;10050;55.492;13.506;2023-05-10T08:40:34;7.13;;;4.03;;
19780;SDS011;10050;55.492;13.506;2023-05-10T08:43:06;5.33;;;3.93;;
19780;SDS011;10050;55.492;13.506;2023-05-10T08:45:36;6.30;;;3.83;;
19780;SDS011;10050;55.492;13.506;2023-05-10T08:48:06;4.87;;;3.97;;
19780;SDS011;10050;55.492;13.506;2023-05-10T08:50:35;7.93;;;4.27;;
19780;SDS011;10050;55.492;13.506;2023-05-10T08:53:03;9.07;;;4.43;;
19780;SDS011;10050;55.492;13.506;2023-05-10T08:55:30;6.20;;;4.23;;
19780;SDS011;10050;55.492;13.506;2023-05-10T08:57:57;6.73;;;4.07;;
19780;SDS011;10050;55.492;13.506;2023-05-10T09:00:23;6.73;;;4.30;;
19780;SDS011;10050;55.492;13.506;2023-05-10T09:02:50;6.20;;;4.13;;
19780;SDS011;10050;55.492;13.506;2023-05-10T09:05:16;7.70;;;3.80;;
19780;SDS011;10050;55.492;13.506;2023-05-10T09:07:42;12.80;;;5.10;;
19780;SDS011;10050;55.492;13.506;2023-05-10T09:10:08;10.80;;;4.33;;
19780;SDS011;10050;55.492;13.506;2023-05-10T09:12:35;17.67;;;5.13;;
19780;SDS011;10050;55.492;13.506;2023-05-10T09:15:01;5.47;;;4.53;;
19780;SDS011;10050;55.492;13.506;2023-05-10T09:17:28;8.07;;;4.10;;
19780;SDS011;10050;55.492;13.506;2023-05-10T09:20:02;7.07;;;4.17;;
19780;SDS011;10050;55.492;13.506;2023-05-10T09:22:29;8.53;;;4.07;;
19780;SDS011;10050;55.492;13.506;2023-05-10T09:25:05;7.57;;;4.93;;
19780;SDS011;10050;55.492;13.506;2023-05-10T09:27:36;6.73;;;4.50;;
19780;SDS011;10050;55.492;13.506;2023-05-10T09:30:03;6.33;;;4.03;;
19780;SDS011;10050;55.492;13.506;2023-05-10T09:32:40;6.20;;;3.70;;
19780;SDS011;10050;55.492;13.506;2023-05-10T09:35:08;11.17;;;4.50;;
19780;SDS011;10050;55.492;13.506;2023-05-10T09:37:42;7.23;;;4.17;;
19780;SDS011;10050;55.492;13.506;2023-05-10T09:40:16;9.23;;;4.53;;
19780;SDS011;10050;55.492;13.506;2023-05-10T09:43:03;7.00;;;3.97;;
19780;SDS011;10050;55.492;13.506;2023-05-10T09:45:32;4.23;;;3.37;;
19780;SDS011;10050;55.492;13.506;2023-05-10T09:47:59;9.10;;;3.70;;
19780;SDS011;10050;55.492;13.506;2023-05-10T09:50:27;4.97;;;3.90;;
19780;SDS011;10050;55.492;13.506;2023-05-10T09:52:54;9.13;;;3.73;;
19780;SDS011;10050;55.492;13.506;2023-05-10T09:55:25;7.17;;;3.40;;
19780;SDS011;10050;55.492;13.506;2023-05-10T09:58:02;4.57;;;3.27;;
19780;SDS011;10050;55.492;13.506;2023-05-10T10:00:33;7.23;;;3.77;;
19780;SDS011;10050;55.492;13.506;2023-05-10T10:03:03;5.40;;;3.20;;
19780;SDS011;10050;55.492;13.506;2023-05-10T10:05:33;9.33;;;3.83;;
19780;SDS011;10050;55.492;13.506;2023-05-10T10:08:02;4.53;;;3.23;;
19780;SDS011;10050;55.492;13.506;2023-05-10T10:10:29;3.67;;;3.30;;
19780;SDS011;10050;55.492;13.506;2023-05-10T10:12:57;3.97;;;3.50;;
19780;SDS011;10050;55.492;13.506;2023-05-10T10:15:23;7.40;;;3.57;;
19780;SDS011;10050;55.492;13.506;2023-05-10T10:17:50;5.87;;;3.50;;
19780;SDS011;10050;55.492;13.506;2023-05-10T10:20:17;8.10;;;3.40;;
19780;SDS011;10050;55.492;13.506;2023-05-10T10:22:44;4.00;;;3.30;;
19780;SDS011;10050;55.492;13.506;2023-05-10T10:25:11;4.10;;;3.73;;
19780;SDS011;10050;55.492;13.506;2023-05-10T10:32:55;4.40;;;3.23;;
19780;SDS011;10050;55.492;13.506;2023-05-10T10:35:43;5.50;;;3.30;;
19780;SDS011;10050;55.492;13.506;2023-05-10T10:38:11;3.40;;;3.10;;
19780;SDS011;10050;55.492;13.506;2023-05-10T10:40:38;6.83;;;3.87;;
19780;SDS011;10050;55.492;13.506;2023-05-10T10:51:37;3.80;;;3.40;;
19780;SDS011;10050;55.492;13.506;2023-05-10T10:54:09;3.57;;;3.03;;
19780;SDS011;10050;55.492;13.506;2023-05-10T10:56:36;3.80;;;3.20;;
19780;SDS011;10050;55.492;13.506;2023-05-10T10:59:01;3.70;;;2.87;;
19780;SDS011;10050;55.492;13.506;2023-05-10T11:01:32;5.57;;;3.20;;
19780;SDS011;10050;55.492;13.506;2023-05-10T11:11:34;6.50;;;3.20;;
19780;SDS011;10050;55.492;13.506;2023-05-10T11:14:04;5.23;;;2.83;;
19780;SDS011;10050;55.492;13.506;2023-05-10T11:16:43;6.73;;;3.30;;
19780;SDS011;10050;55.492;13.506;2023-05-10T11:19:13;4.37;;;3.27;;
19780;SDS011;10050;55.492;13.506;2023-05-10T11:24:30;11.03;;;3.63;;
19780;SDS011;10050;55.492;13.506;2023-05-10T11:26:56;3.67;;;3.37;;
19780;SDS011;10050;55.492;13.506;2023-05-10T11:29:22;7.07;;;3.47;;
19780;SDS011;10050;55.492;13.506;2023-05-10T11:31:48;5.10;;;3.27;;
19780;SDS011;10050;55.492;13.506;2023-05-10T11:34:24;7.93;;;3.33;;
19780;SDS011;10050;55.492;13.506;2023-05-10T11:37:00;3.90;;;3.50;;
19780;SDS011;10050;55.492;13.506;2023-05-10T11:39:27;7.03;;;3.10;;
19780;SDS011;10050;55.492;13.506;2023-05-10T11:41:53;3.57;;;2.97;;
19780;SDS011;10050;55.492;13.506;2023-05-10T11:44:20;4.27;;;3.13;;
19780;SDS011;10050;55.492;13.506;2023-05-10T11:46:45;4.47;;;3.40;;
19780;SDS011;10050;55.492;13.506;2023-05-10T11:49:11;3.93;;;3.00;;
19780;SDS011;10050;55.492;13.506;2023-05-10T11:51:38;6.33;;;3.13;;
19780;SDS011;10050;55.492;13.506;2023-05-10T11:54:08;4.93;;;3.37;;
19780;SDS011;10050;55.492;13.506;2023-05-10T11:56:36;6.33;;;3.10;;
19780;SDS011;10050;55.492;13.506;2023-05-10T11:59:03;7.00;;;2.93;;
19780;SDS011;10050;55.492;13.506;2023-05-10T12:01:29;3.87;;;2.83;;
19780;SDS011;10050;55.492;13.506;2023-05-10T12:03:56;5.07;;;3.07;;
19780;SDS011;10050;55.492;13.506;2023-05-10T12:06:26;6.40;;;3.03;;
19780;SDS011;10050;55.492;13.506;2023-05-10T12:08:53;6.83;;;3.37;;
19780;SDS011;10050;55.492;13.506;2023-05-10T12:11:19;7.27;;;3.10;;
19780;SDS011;10050;55.492;13.506;2023-05-10T12:13:49;4.70;;;3.07;;
19780;SDS011;10050;55.492;13.506;2023-05-10T12:16:25;7.53;;;3.40;;
19780;SDS011;10050;55.492;13.506;2023-05-10T12:18:54;5.63;;;3.20;;
19780;SDS011;10050;55.492;13.506;2023-05-10T12:21:22;5.27;;;3.03;;
19780;SDS011;10050;55.492;13.506;2023-05-10T12:23:49;4.73;;;2.80;;
19780;SDS011;10050;55.492;13.506;2023-05-10T12:26:16;7.23;;;3.17;;
19780;SDS011;10050;55.492;13.506;2023-05-10T12:28:42;4.53;;;3.43;;
19780;SDS011;10050;55.492;13.506;2023-05-10T12:31:08;4.17;;;3.00;;
19780;SDS011;10050;55.492;13.506;2023-05-10T12:33:41;2.93;;;2.73;;
19780;SDS011;10050;55.492;13.506;2023-05-10T12:36:11;5.63;;;3.10;;
19780;SDS011;10050;55.492;13.506;2023-05-10T12:38:39;3.73;;;3.00;;
19780;SDS011;10050;55.492;13.506;2023-05-10T12:41:07;3.97;;;2.87;;
19780;SDS011;10050;55.492;13.506;2023-05-10T12:43:36;5.00;;;2.87;;
19780;SDS011;10050;55.492;13.506;2023-05-10T12:46:06;5.43;;;2.90;;
19780;SDS011;10050;55.492;13.506;2023-05-10T12:48:36;4.53;;;2.90;;
19780;SDS011;10050;55.492;13.506;2023-05-10T12:51:03;8.47;;;3.00;;
19780;SDS011;10050;55.492;13.506;2023-05-10T12:53:29;5.00;;;3.47;;
19780;SDS011;10050;55.492;13.506;2023-05-10T12:55:55;4.33;;;3.27;;
19780;SDS011;10050;55.492;13.506;2023-05-10T12:58:21;4.10;;;3.63;;
19780;SDS011;10050;55.492;13.506;2023-05-10T13:00:46;3.30;;;2.87;;
19780;SDS011;10050;55.492;13.506;2023-05-10T13:03:12;5.23;;;2.90;;
19780;SDS011;10050;55.492;13.506;2023-05-10T13:05:38;5.27;;;3.30;;
19780;SDS011;10050;55.492;13.506;2023-05-10T13:08:04;4.80;;;2.97;;
19780;SDS011;10050;55.492;13.506;2023-05-10T13:10:31;5.20;;;3.07;;
19780;SDS011;10050;55.492;13.506;2023-05-10T13:12:57;3.37;;;2.93;;
19780;SDS011;10050;55.492;13.506;2023-05-10T13:15:23;4.57;;;2.90;;
19780;SDS011;10050;55.492;13.506;2023-05-10T13:17:49;3.53;;;2.87;;
19780;SDS011;10050;55.492;13.506;2023-05-10T13:20:15;2.40;;;2.20;;
19780;SDS011;10050;55.492;13.506;2023-05-10T13:22:41;3.07;;;2.73;;
19780;SDS011;10050;55.492;13.506;2023-05-10T13:25:08;3.27;;;2.97;;
19780;SDS011;10050;55.492;13.506;2023-05-10T13:27:34;4.83;;;2.53;;
19780;SDS011;10050;55.492;13.506;2023-05-10T13:29:59;5.23;;;2.60;;
19780;SDS011;10050;55.492;13.506;2023-05-10T13:32:26;2.80;;;2.60;;
19780;SDS011;10050;55.492;13.506;2023-05-10T13:34:52;3.73;;;3.03;;
19780;SDS011;10050;55.492;13.506;2023-05-10T13:37:17;4.77;;;2.70;;
19780;SDS011;10050;55.492;13.506;2023-05-10T13:39:43;3.53;;;2.87;;
19780;SDS011;10050;55.492;13.506;2023-05-10T13:42:09;3.90;;;2.30;;
19780;SDS011;10050;55.492;13.506;2023-05-10T13:44:34;2.37;;;2.27;;
19780;SDS011;10050;55.492;13.506;2023-05-10T13:47:01;4.20;;;2.70;;
19780;SDS011;10050;55.492;13.506;2023-05-10T13:49:26;2.97;;;2.33;;
19780;SDS011;10050;55.492;13.506;2023-05-10T13:51:52;5.23;;;2.53;;
19780;SDS011;10050;55.492;13.506;2023-05-10T13:54:18;4.47;;;2.30;;
19780;SDS011;10050;55.492;13.506;2023-05-10T13:56:45;3.47;;;2.10;;
19780;SDS011;10050;55.492;13.506;2023-05-10T13:59:12;5.43;;;2.33;;
19780;SDS011;10050;55.492;13.506;2023-05-10T14:01:39;2.90;;;2.40;;
19780;SDS011;10050;55.492;13.506;2023-05-10T14:04:10;3.17;;;2.17;;
19780;SDS011;10050;55.492;13.506;2023-05-10T14:06:36;2.33;;;2.13;;
19780;SDS011;10050;55.492;13.506;2023-05-10T14:09:02;3.80;;;2.53;;
19780;SDS011;10050;55.492;13.506;2023-05-10T14:11:28;2.60;;;2.33;;
19780;SDS011;10050;55.492;13.506;2023-05-10T14:13:54;3.70;;;2.00;;
19780;SDS011;10050;55.492;13.506;2023-05-10T14:16:20;5.13;;;2.60;;
19780;SDS011;10050;55.492;13.506;2023-05-10T14:18:46;6.10;;;2.27;;
19780;SDS011;10050;55.492;13.506;2023-05-10T14:21:11;5.20;;;2.50;;
19780;SDS011;10050;55.492;13.506;2023-05-10T14:23:37;2.90;;;2.07;;
19780;SDS011;10050;55.492;13.506;2023-05-10T14:26:04;6.37;;;2.30;;
19780;SDS011;10050;55.492;13.506;2023-05-10T14:28:29;4.03;;;2.30;;
19780;SDS011;10050;55.492;13.506;2023-05-10T14:30:55;4.53;;;2.50;;
19780;SDS011;10050;55.492;13.506;2023-05-10T14:33:21;4.10;;;2.37;;
19780;SDS011;10050;55.492;13.506;2023-05-10T14:35:47;2.53;;;2.40;;
19780;SDS011;10050;55.492;13.506;2023-05-10T14:38:13;5.60;;;2.40;;
19780;SDS011;10050;55.492;13.506;2023-05-10T14:40:39;2.13;;;1.97;;
19780;SDS011;10050;55.492;13.506;2023-05-10T14:43:04;4.80;;;2.73;;
19780;SDS011;10050;55.492;13.506;2023-05-10T14:45:30;2.67;;;2.10;;
19780;SDS011;10050;55.492;13.506;2023-05-10T14:47:56;3.13;;;2.13;;
19780;SDS011;10050;55.492;13.506;2023-05-10T14:50:22;2.40;;;2.17;;
19780;SDS011;10050;55.492;13.506;2023-05-10T14:52:48;4.40;;;2.20;;
19780;SDS011;10050;55.492;13.506;2023-05-10T14:55:14;2.57;;;2.37;;
19780;SDS011;10050;55.492;13.506;2023-05-10T14:57:40;2.87;;;2.57;;
19780;SDS011;10050;55.492;13.506;2023-05-10T15:00:06;5.97;;;2.30;;
19780;SDS011;10050;55.492;13.506;2023-05-10T15:02:32;2.80;;;2.20;;
19780;SDS011;10050;55.492;13.506;2023-05-10T15:04:58;5.73;;;2.40;;
19780;SDS011;10050;55.492;13.506;2023-05-10T15:07:24;2.30;;;2.10;;
19780;SDS011;10050;55.492;13.506;2023-05-10T15:10:03;2.67;;;2.20;;
19780;SDS011;10050;55.492;13.506;2023-05-10T15:12:29;4.03;;;2.20;;
19780;SDS011;10050;55.492;13.506;2023-05-10T15:14:54;4.07;;;2.63;;
19780;SDS011;10050;55.492;13.506;2023-05-10T15:17:20;4.40;;;2.30;;
19780;SDS011;10050;55.492;13.506;2023-05-10T15:19:46;4.43;;;2.40;;